Terminal Aerodrome Forecast
Issued by NWS

Home | Current Version | Previous Version | Text Only | Print | Product List | Glossary On
Versions: 1 2 3 4 5 6 7 8 9 10 11 12 13 14
000
FTUS45 KPSR 272333
TAFIWA
TAF
KIWA 272333Z 2800/2824 28005KT P6SM SKC
     FM280500 11004KT P6SM SKC
     FM282000 24007KT P6SM SKC
      AMD LTD TO CLD VIS AND WIND TIL 281300=

USA.gov is the U.S. government's official web portal to all federal, state and local government web resources and services.